Time;durP1;ratioP1;P1;durP2;ratioP2;P2;SDS_P1;SDS_P2;PMS_P1;PMS_P2;Temp;Humidity;BMP_temperature;BMP_pressure;BME280_temperature;BME280_humidity;BME280_pressure;Samples;Min_cycle;Max_cycle;Signal;HPM_P1;HPM_P2
2022/03/16 00:02:13;;;;;;;53.00;31.95;;;;;;;3.73;93.74;102237.66;5030464;28;20581;-94
2022/03/16 00:04:38;;;;;;;50.67;31.38;;;;;;;3.72;94.46;102238.53;5046024;28;20037;-95
2022/03/16 00:07:03;;;;;;;54.75;32.03;;;;;;;3.63;94.41;102227.97;5046076;28;20029;-94
2022/03/16 00:09:29;;;;;;;52.60;32.55;;;;;;;3.68;94.08;102242.03;5043193;28;20034;-95
2022/03/16 00:11:54;;;;;;;49.38;31.20;;;;;;;3.64;94.48;102245.56;5048398;28;20041;-94
2022/03/16 00:14:19;;;;;;;49.60;31.65;;;;;;;3.63;94.73;102250.78;5025692;28;20080;-95
2022/03/16 00:16:44;;;;;;;50.55;30.52;;;;;;;3.60;94.33;102237.66;5019129;28;20422;-95
2022/03/16 00:19:10;;;;;;;50.63;30.73;;;;;;;3.55;94.12;102242.00;5024541;28;20026;-94
2022/03/16 00:21:35;;;;;;;56.80;30.77;;;;;;;3.50;93.80;102242.00;5045758;28;20471;-95
2022/03/16 00:24:01;;;;;;;47.55;30.90;;;;;;;3.44;93.79;102248.16;5031342;28;20068;-95
2022/03/16 00:26:27;;;;;;;51.25;30.52;;;;;;;3.38;93.19;102245.50;5015272;28;20441;-94
2022/03/16 00:28:52;;;;;;;49.63;29.70;;;;;;;3.33;93.95;102244.63;5034980;28;20079;-95
2022/03/16 00:31:18;;;;;;;53.20;30.83;;;;;;;3.32;94.26;102252.53;5036667;28;20032;-95
2022/03/16 00:33:43;;;;;;;48.05;30.88;;;;;;;3.26;94.00;102242.88;5047528;28;20374;-95
2022/03/16 00:36:08;;;;;;;47.20;30.45;;;;;;;3.26;93.96;102245.53;5030811;28;20033;-95
2022/03/16 00:38:33;;;;;;;52.45;30.10;;;;;;;3.20;93.83;102241.09;5015478;28;20025;-95
2022/03/16 00:40:59;;;;;;;49.60;29.33;;;;;;;3.19;93.45;102247.25;5035665;28;20036;-94
2022/03/16 00:43:24;;;;;;;54.38;31.08;;;;;;;3.17;93.64;102246.34;5037558;28;20410;-94
2022/03/16 00:45:49;;;;;;;49.78;29.85;;;;;;;3.11;93.75;102233.19;5039911;28;20053;-96
2022/03/16 00:48:14;;;;;;;47.60;29.80;;;;;;;3.06;93.86;102228.81;5033949;28;20598;-94
2022/03/16 00:50:40;;;;;;;50.70;30.30;;;;;;;3.08;93.89;102232.31;5027361;28;20068;-96
2022/03/16 00:53:05;;;;;;;49.45;31.02;;;;;;;3.06;94.48;102232.31;5046688;28;20037;-95
2022/03/16 00:55:30;;;;;;;49.05;29.50;;;;;;;3.02;94.40;102225.28;5030621;28;20095;-95
2022/03/16 00:57:56;;;;;;;51.08;30.23;;;;;;;3.02;94.49;102229.69;5037949;28;20064;-94
2022/03/16 01:00:21;;;;;;;46.10;30.05;;;;;;;2.97;94.77;102225.28;5045389;28;20477;-94
2022/03/16 01:02:46;;;;;;;46.35;28.88;;;;;;;2.96;94.72;102231.38;5040471;28;20017;-96
2022/03/16 01:05:11;;;;;;;50.70;30.80;;;;;;;2.97;94.81;102230.53;5035400;28;20495;-93
2022/03/16 01:07:37;;;;;;;49.80;30.02;;;;;;;2.94;94.89;102227.03;5031887;28;20121;-93
2022/03/16 01:10:03;;;;;;;51.28;29.92;;;;;;;2.88;95.11;102221.72;5034542;28;20112;-94
2022/03/16 01:12:28;;;;;;;52.58;30.25;;;;;;;2.92;95.17;102231.38;5029077;28;20156;-94
2022/03/16 01:14:54;;;;;;;51.83;32.13;;;;;;;2.90;95.78;102236.66;5018064;28;20049;-94
2022/03/16 01:17:19;;;;;;;51.20;30.98;;;;;;;2.86;95.63;102227.00;5027168;28;20604;-94
2022/03/16 01:19:45;;;;;;;56.03;31.20;;;;;;;2.89;96.12;102237.53;5012909;28;20049;-93
2022/03/16 01:22:10;;;;;;;54.42;31.75;;;;;;;2.93;96.19;102235.78;5041304;28;20072;-95
2022/03/16 01:24:36;;;;;;;53.65;31.08;;;;;;;2.93;96.24;102230.53;5030808;28;20026;-94
2022/03/16 01:27:01;;;;;;;50.97;30.33;;;;;;;2.93;96.11;102231.41;5013254;28;20036;-95
2022/03/16 01:29:27;;;;;;;49.13;30.73;;;;;;;2.92;96.46;102229.63;5010986;28;20106;-92
2022/03/16 01:31:53;;;;;;;53.63;30.92;;;;;;;2.92;96.50;102221.75;5017772;28;20029;-94
2022/03/16 01:34:19;;;;;;;54.30;31.23;;;;;;;2.91;96.84;102225.25;5041864;28;20041;-96
2022/03/16 01:36:45;;;;;;;54.95;32.58;;;;;;;2.86;96.84;102223.50;5036755;28;20040;-95
2022/03/16 01:39:10;;;;;;;55.03;31.10;;;;;;;2.87;96.67;102212.97;5037691;28;20039;-95
2022/03/16 01:41:35;;;;;;;47.85;30.27;;;;;;;2.87;96.88;102209.47;5036178;28;20025;-95
2022/03/16 01:44:01;;;;;;;49.67;30.20;;;;;;;2.87;96.81;102212.97;5049134;28;20041;-95
2022/03/16 01:46:27;;;;;;;49.60;30.90;;;;;;;2.85;97.11;102208.59;5048646;28;20033;-95
2022/03/16 01:48:52;;;;;;;50.40;31.00;;;;;;;2.85;97.18;102195.44;5049004;28;20096;-95
2022/03/16 01:51:18;;;;;;;50.33;30.70;;;;;;;2.84;97.39;102191.91;5049479;28;20053;-95
2022/03/16 01:53:43;;;;;;;48.50;31.63;;;;;;;2.86;97.49;102194.56;5040000;28;20022;-94
2022/03/16 01:56:09;;;;;;;47.80;29.77;;;;;;;2.80;97.54;102199.78;5043405;28;20029;-95
2022/03/16 01:58:35;;;;;;;45.13;27.80;;;;;;;2.84;97.37;102201.56;5049624;28;20049;-94
2022/03/16 02:01:00;;;;;;;47.28;30.02;;;;;;;2.86;97.67;102192.81;5043736;28;20046;-95
2022/03/16 02:03:25;;;;;;;46.22;29.13;;;;;;;2.88;97.75;102191.03;5036650;28;20029;-95
2022/03/16 02:05:51;;;;;;;51.00;32.05;;;;;;;2.84;97.61;102181.38;5044516;28;20033;-95
2022/03/16 02:08:16;;;;;;;45.30;28.65;;;;;;;2.87;97.81;102186.66;5030136;28;20509;-95
2022/03/16 02:10:42;;;;;;;45.17;27.77;;;;;;;2.82;98.15;102171.75;5040618;28;20049;-95
2022/03/16 02:13:10;;;;;;;46.55;28.85;;;;;;;2.87;97.92;102176.16;5037199;28;20017;-94
2022/03/16 02:15:36;;;;;;;44.25;28.65;;;;;;;2.88;98.28;102182.28;5042729;28;20046;-93
2022/03/16 02:18:02;;;;;;;47.58;29.38;;;;;;;2.88;98.35;102182.28;5029720;28;20034;-94
2022/03/16 02:20:28;;;;;;;45.85;30.25;;;;;;;2.91;98.37;102184.94;5045780;28;20025;-93
2022/03/16 02:22:58;;;;;;;44.75;28.35;;;;;;;2.88;98.46;102174.38;5047291;28;20033;-94
2022/03/16 02:25:25;;;;;;;41.00;27.20;;;;;;;2.89;98.69;102171.78;5048831;28;20415;-94
2022/03/16 02:27:54;;;;;;;42.70;26.42;;;;;;;2.89;98.85;102169.16;5034405;28;20093;-94
2022/03/16 02:30:24;;;;;;;38.90;25.77;;;;;;;2.88;98.83;102169.13;5032874;28;20077;-94
2022/03/16 02:32:50;;;;;;;43.47;27.48;;;;;;;2.90;98.84;102170.91;5046891;28;20018;-95
2022/03/16 02:35:16;;;;;;;41.60;25.48;;;;;;;2.92;98.72;102174.41;5032559;28;20029;-95
2022/03/16 02:37:42;;;;;;;41.85;26.80;;;;;;;2.88;98.79;102177.03;5047039;28;20025;-94
2022/03/16 02:40:10;;;;;;;41.58;26.98;;;;;;;2.90;98.83;102178.78;5034283;28;20040;-95
2022/03/16 02:42:38;;;;;;;40.88;26.02;;;;;;;2.65;98.89;102141.03;5411636;23;21094;-93
2022/03/16 02:45:05;;;;;;;39.15;26.70;;;;;;;2.58;98.62;102135.75;5062393;28;20025;-95
2022/03/16 02:47:31;;;;;;;39.55;25.27;;;;;;;2.60;98.74;102145.41;5056782;28;20030;-96
2022/03/16 02:49:59;;;;;;;39.95;26.05;;;;;;;2.48;98.40;102127.84;5056737;28;20009;-95
2022/03/16 02:55:12;;;;;;;43.72;25.95;;;;;;;2.35;98.70;102104.19;5408019;23;20045;-95
2022/03/16 02:57:39;;;;;;;41.35;26.00;;;;;;;2.35;98.70;102112.06;5056459;28;20030;-96
2022/03/16 03:00:07;;;;;;;44.47;27.45;;;;;;;2.51;99.05;102145.41;5054149;28;20030;-95
2022/03/16 03:02:33;;;;;;;41.50;27.67;;;;;;;2.32;98.96;102118.16;5047349;28;20457;-95
2022/03/16 03:04:59;;;;;;;43.65;28.77;;;;;;;2.55;99.15;102162.03;5048993;28;20025;-95
2022/03/16 03:07:25;;;;;;;43.50;27.13;;;;;;;2.29;98.92;102118.16;5048274;28;20037;-94
2022/03/16 03:09:50;;;;;;;44.90;27.02;;;;;;;2.45;99.42;102150.63;5050199;28;20101;-95
2022/03/16 03:12:16;;;;;;;43.30;27.30;;;;;;;2.47;99.13;102156.78;5050342;28;20037;-95
2022/03/16 03:14:42;;;;;;;40.97;25.90;;;;;;;2.39;99.63;102140.09;5040744;28;20018;-94
2022/03/16 03:17:08;;;;;;;46.53;27.55;;;;;;;2.32;99.66;102127.81;5039024;28;20102;-95
2022/03/16 03:19:33;;;;;;;41.60;26.60;;;;;;;2.21;99.63;102115.50;5036904;28;20021;-95
2022/03/16 03:21:59;;;;;;;40.58;26.17;;;;;;;2.31;99.69;102134.81;5038341;28;20083;-95
2022/03/16 03:24:24;;;;;;;42.63;28.00;;;;;;;2.25;99.70;102126.88;5036891;28;20030;-95
2022/03/16 03:26:50;;;;;;;42.65;27.40;;;;;;;2.45;99.55;102164.63;5038860;28;20032;-94
2022/03/16 03:29:16;;;;;;;43.53;27.42;;;;;;;2.37;99.91;102152.34;5040811;28;20146;-94
2022/03/16 03:31:43;;;;;;;41.17;26.73;;;;;;;2.20;99.74;102121.63;5048225;28;20060;-94
2022/03/16 03:34:08;;;;;;;42.35;26.55;;;;;;;2.47;99.90;102170.78;5047514;28;20489;-94
2022/03/16 03:36:34;;;;;;;44.03;28.77;;;;;;;2.43;99.93;102158.50;5044615;28;20029;-94
2022/03/16 03:39:00;;;;;;;44.60;28.42;;;;;;;2.40;100.00;102153.22;5043527;28;20033;-94
2022/03/16 03:41:26;;;;;;;42.22;26.80;;;;;;;2.50;99.92;102164.66;5048492;28;20041;-95
2022/03/16 03:43:51;;;;;;;41.28;27.33;;;;;;;2.31;99.63;102136.56;5052715;28;20703;-95
2022/03/16 03:46:17;;;;;;;39.70;27.05;;;;;;;2.30;99.58;102140.94;5047514;28;20017;-95
2022/03/16 03:48:42;;;;;;;39.65;26.17;;;;;;;2.35;99.35;102154.97;5048503;28;20068;-94
2022/03/16 03:51:08;;;;;;;42.30;27.90;;;;;;;2.27;99.56;102135.66;5042156;28;20013;-95
2022/03/16 03:53:37;;;;;;;42.33;28.15;;;;;;;2.16;99.68;102113.72;5052745;28;20099;-95
2022/03/16 03:56:04;;;;;;;43.95;28.88;;;;;;;2.18;99.88;102119.88;5045865;28;20083;-95
2022/03/16 03:58:32;;;;;;;46.08;29.00;;;;;;;2.18;99.81;102118.13;5050606;28;20105;-95
2022/03/16 04:00:57;;;;;;;43.78;29.92;;;;;;;2.40;99.91;102160.25;5051476;28;20434;-95
2022/03/16 04:03:23;;;;;;;49.58;30.25;;;;;;;2.36;99.76;102166.34;5051841;28;20032;-94
2022/03/16 04:05:49;;;;;;;49.00;30.25;;;;;;;2.21;99.85;102147.00;5051293;28;20025;-95
2022/03/16 04:08:14;;;;;;;48.50;30.05;;;;;;;1.97;99.97;102105.78;5052212;28;20064;-95
2022/03/16 04:10:40;;;;;;;49.03;29.10;;;;;;;2.04;99.86;102111.91;5052519;28;20021;-95
2022/03/16 04:13:08;;;;;;;47.15;29.45;;;;;;;2.18;100.00;102131.25;5050131;28;20044;-95
2022/03/16 04:15:34;;;;;;;47.78;31.77;;;;;;;2.03;100.00;102106.66;5046912;28;20030;-95
2022/03/16 04:18:02;;;;;;;52.45;31.90;;;;;;;2.12;100.00;102111.97;5052121;28;20296;-95
2022/03/16 04:20:27;;;;;;;50.25;30.95;;;;;;;2.13;100.00;102127.75;5043904;28;20631;-95
2022/03/16 04:22:53;;;;;;;52.30;32.42;;;;;;;2.27;100.00;102148.81;5030961;28;20033;-95
2022/03/16 04:25:18;;;;;;;53.08;33.47;;;;;;;2.05;100.00;102107.53;5047474;28;20125;-95
2022/03/16 04:27:44;;;;;;;56.97;33.53;;;;;;;2.06;100.00;102111.94;5049283;28;20109;-95
2022/03/16 04:30:10;;;;;;;52.25;32.20;;;;;;;2.04;100.00;102103.16;5034549;28;20036;-95
2022/03/16 04:32:36;;;;;;;53.75;32.03;;;;;;;2.02;100.00;102095.28;5033637;28;20026;-95
2022/03/16 04:35:01;;;;;;;52.17;33.72;;;;;;;2.16;100.00;102119.84;5048537;28;20033;-95
2022/03/16 04:37:27;;;;;;;52.83;33.17;;;;;;;2.15;100.00;102112.84;5045638;28;20060;-95
2022/03/16 04:39:53;;;;;;;50.83;33.55;;;;;;;2.09;100.00;102111.94;5033460;28;20068;-94
2022/03/16 04:42:18;;;;;;;55.53;34.47;;;;;;;2.33;100.00;102147.94;5045997;28;20366;-95
2022/03/16 04:44:44;;;;;;;52.78;34.42;;;;;;;2.33;100.00;102151.44;5045734;28;20037;-94
2022/03/16 04:47:09;;;;;;;55.72;34.05;;;;;;;2.14;100.00;102120.72;5042106;28;20032;-95
2022/03/16 04:49:35;;;;;;;55.25;34.08;;;;;;;2.05;100.00;102110.16;5046625;28;20033;-94
2022/03/16 04:52:01;;;;;;;54.83;34.95;;;;;;;2.09;100.00;102120.72;5050115;28;20433;-95
2022/03/16 04:54:26;;;;;;;51.83;34.90;;;;;;;2.08;100.00;102116.31;5045061;28;20045;-95
2022/03/16 04:56:52;;;;;;;54.05;34.85;;;;;;;2.14;100.00;102126.00;5043060;28;20104;-95
2022/03/16 04:59:17;;;;;;;56.72;35.17;;;;;;;2.14;100.00;102118.09;5039808;28;20044;-94
2022/03/16 05:01:43;;;;;;;53.30;34.67;;;;;;;2.23;100.00;102131.28;5039726;28;20030;-95
2022/03/16 05:04:09;;;;;;;53.03;33.53;;;;;;;2.07;100.00;102105.81;5037344;28;20074;-95
2022/03/16 05:06:34;;;;;;;51.85;33.22;;;;;;;2.14;100.00;102110.22;5032281;28;20034;-95
2022/03/16 05:08:59;;;;;;;55.40;33.50;;;;;;;2.17;100.00;102125.97;5023599;28;20052;-95
2022/03/16 05:11:28;;;;;;;52.47;32.25;;;;;;;2.22;100.00;102122.53;5026191;28;20083;-95
2022/03/16 05:13:53;;;;;;;52.67;33.78;;;;;;;2.28;100.00;102134.78;5032634;28;20087;-94
2022/03/16 05:16:19;;;;;;;48.42;31.98;;;;;;;2.21;100.00;102125.13;5042676;28;20073;-94
2022/03/16 05:18:45;;;;;;;50.33;31.85;;;;;;;2.15;100.00;102106.72;5043500;28;20056;-95
2022/03/16 05:21:12;;;;;;;51.88;31.45;;;;;;;2.05;100.00;102097.03;5044497;28;20032;-95
2022/03/16 05:23:38;;;;;;;48.97;31.90;;;;;;;2.05;100.00;102102.28;5036691;28;20010;-95
2022/03/16 05:26:04;;;;;;;48.40;31.50;;;;;;;2.00;100.00;102091.75;5048028;28;20141;-95
2022/03/16 05:28:30;;;;;;;47.35;30.42;;;;;;;2.23;100.00;102140.03;5055217;28;20009;-95
2022/03/16 05:30:58;;;;;;;50.45;31.95;;;;;;;1.97;100.00;102089.16;5035892;28;20029;-95
2022/03/16 05:33:24;;;;;;;51.08;31.77;;;;;;;1.89;100.00;102077.72;5046044;28;20023;-95
2022/03/16 05:35:50;;;;;;;55.38;31.80;;;;;;;2.01;100.00;102104.03;5035667;28;20026;-94
2022/03/16 05:38:16;;;;;;;49.05;32.00;;;;;;;2.08;100.00;102116.31;5032835;28;20026;-95
2022/03/16 05:40:43;;;;;;;47.47;30.50;;;;;;;1.90;100.00;102088.22;5040161;28;20045;-94
2022/03/16 05:43:09;;;;;;;48.55;30.80;;;;;;;1.90;100.00;102090.84;5046694;28;20005;-95
2022/03/16 05:45:35;;;;;;;51.10;31.92;;;;;;;1.95;100.00;102097.00;5051868;28;20029;-95
2022/03/16 05:48:02;;;;;;;50.47;30.50;;;;;;;2.05;100.00;102123.28;5050379;28;20181;-95
2022/03/16 05:50:28;;;;;;;50.08;32.00;;;;;;;1.99;100.00;102117.16;5040869;28;20493;-95
2022/03/16 05:53:01;;;;;;;47.00;30.88;;;;;;;2.19;100.00;102159.28;5039855;28;20018;-95
2022/03/16 05:55:26;;;;;;;45.53;30.00;;;;;;;2.14;100.00;102134.75;5046080;28;20056;-96
2022/03/16 05:57:52;;;;;;;44.35;28.55;;;;;;;2.11;100.00;102123.34;5050555;28;20005;-95
2022/03/16 06:00:19;;;;;;;45.65;29.17;;;;;;;2.19;100.00;102137.38;5052662;28;20034;-95
2022/03/16 06:02:45;;;;;;;49.45;29.85;;;;;;;2.15;100.00;102120.72;5037538;28;20081;-95
2022/03/16 06:05:11;;;;;;;47.60;29.88;;;;;;;2.12;100.00;102110.19;5042121;28;20029;-96
2022/03/16 06:07:39;;;;;;;42.95;29.40;;;;;;;2.25;100.00;102132.13;5043933;28;20020;-95
2022/03/16 06:10:06;;;;;;;47.42;29.45;;;;;;;2.24;100.00;102130.41;5027451;28;20057;-94
2022/03/16 06:12:32;;;;;;;45.88;28.23;;;;;;;2.25;100.00;102116.38;5027180;28;20021;-95
2022/03/16 06:14:57;;;;;;;45.83;28.33;;;;;;;2.43;100.00;102155.88;5042609;28;20029;-94
2022/03/16 06:17:23;;;;;;;42.70;27.75;;;;;;;2.38;100.00;102147.09;5045586;28;20108;-94
2022/03/16 06:19:49;;;;;;;46.08;27.67;;;;;;;2.48;100.00;102151.50;5042707;28;20018;-95
2022/03/16 06:22:14;;;;;;;45.25;27.38;;;;;;;2.47;100.00;102141.00;5034384;28;20033;-95
2022/03/16 06:24:40;;;;;;;42.08;26.25;;;;;;;2.37;100.00;102118.19;5031280;28;20021;-94
2022/03/16 06:27:05;;;;;;;43.30;27.80;;;;;;;2.39;100.00;102114.69;5053627;28;20092;-95
2022/03/16 06:29:31;;;;;;;40.15;26.17;;;;;;;2.48;100.00;102134.88;5056213;28;20037;-96
2022/03/16 06:31:57;;;;;;;41.40;25.23;;;;;;;2.71;100.00;102167.34;5051472;28;20025;-95
2022/03/16 06:34:23;;;;;;;41.05;25.25;;;;;;;2.77;100.00;102178.78;5044772;28;20101;-95
2022/03/16 06:36:48;;;;;;;40.65;25.02;;;;;;;2.63;99.73;102152.41;5052384;28;20029;-95
2022/03/16 06:39:14;;;;;;;37.15;24.05;;;;;;;2.51;99.56;102124.38;5047930;28;20093;-95
2022/03/16 06:41:40;;;;;;;38.50;24.30;;;;;;;2.76;99.34;102151.59;5035685;28;20037;-95
2022/03/16 06:44:08;;;;;;;39.70;25.40;;;;;;;2.64;99.27;102125.28;5048598;28;20021;-95
2022/03/16 06:46:33;;;;;;;37.13;24.20;;;;;;;2.94;99.19;102177.06;5039810;28;20368;-95
2022/03/16 06:48:59;;;;;;;39.65;23.75;;;;;;;2.86;98.99;102149.84;5045225;28;20085;-94
2022/03/16 06:51:24;;;;;;;37.53;22.63;;;;;;;2.86;98.84;102116.53;5044356;28;20022;-94
2022/03/16 06:53:50;;;;;;;36.92;22.77;;;;;;;3.32;98.42;102166.56;5042316;28;20444;-95
2022/03/16 06:56:17;;;;;;;36.30;22.88;;;;;;;3.40;97.78;102122.69;5047394;28;20033;-95
2022/03/16 06:58:43;;;;;;;31.30;20.88;;;;;;;3.59;96.66;102110.38;5038581;28;20127;-95
2022/03/16 07:01:08;;;;;;;31.65;20.75;;;;;;;3.68;95.52;102093.72;5028252;28;20466;-94
2022/03/16 07:03:33;;;;;;;29.27;19.58;;;;;;;3.74;94.63;102083.16;5025649;28;20034;-94
2022/03/16 07:06:00;;;;;;;29.75;20.30;;;;;;;3.86;94.37;102093.66;5027128;28;20437;-91
2022/03/16 07:08:25;;;;;;;30.52;20.35;;;;;;;3.93;93.61;102086.59;5025942;28;20038;-93
2022/03/16 07:10:51;;;;;;;28.90;19.55;;;;;;;4.14;93.11;102096.16;5007036;28;20033;-93
2022/03/16 07:13:16;;;;;;;26.17;18.60;;;;;;;4.43;91.99;102118.00;5025280;28;20030;-95
2022/03/16 07:15:43;;;;;;;25.42;18.60;;;;;;;4.49;91.64;102103.91;5027700;28;20033;-94
2022/03/16 07:18:09;;;;;;;29.05;19.40;;;;;;;4.66;91.23;102135.47;5024783;28;20041;-94
2022/03/16 07:20:35;;;;;;;25.23;17.60;;;;;;;4.66;90.62;102135.47;5025174;28;20021;-94
2022/03/16 07:23:09;;;;;;;26.90;17.45;;;;;;;4.64;90.44;102130.22;5022420;28;20034;-93
2022/03/16 07:25:34;;;;;;;;;;;;;;;4.67;91.21;102135.44;5028012;28;20104;-92
2022/03/16 07:28:00;;;;;;;24.55;17.73;;;;;;;4.62;89.98;102115.25;5035133;28;20357;-95
2022/03/16 07:30:25;;;;;;;25.60;18.02;;;;;;;4.71;89.96;102125.75;5039969;28;20034;-94
2022/03/16 07:32:51;;;;;;;29.23;17.73;;;;;;;4.75;89.96;102115.16;5029975;28;20040;-93
2022/03/16 07:35:16;;;;;;;25.92;17.70;;;;;;;4.82;89.07;102116.03;5039953;28;20044;-93
2022/03/16 07:37:47;;;;;;;25.50;17.60;;;;;;;4.90;88.65;102119.47;5020290;28;20042;-94
2022/03/16 07:40:12;;;;;;;26.23;17.45;;;;;;;4.98;88.30;102115.03;5033431;28;20033;-94
2022/03/16 07:42:38;;;;;;;28.45;17.77;;;;;;;5.02;87.74;102101.78;5034705;28;20042;-94
2022/03/16 07:45:04;;;;;;;27.02;17.80;;;;;;;5.17;87.85;102121.03;5029023;28;20037;-94
2022/03/16 07:47:29;;;;;;;28.38;18.42;;;;;;;5.28;86.94;102118.31;5034158;28;20031;-94
2022/03/16 07:49:56;;;;;;;26.80;17.75;;;;;;;5.43;86.31;102110.25;5027995;28;20116;-94
2022/03/16 07:52:24;;;;;;;27.52;17.65;;;;;;;5.56;85.18;102113.66;5027974;28;20030;-93
2022/03/16 07:54:49;;;;;;;27.35;17.35;;;;;;;5.77;84.60;102101.09;5016816;28;20058;-95
2022/03/16 07:57:16;;;;;;;26.85;17.75;;;;;;;6.07;83.54;102113.13;5021778;28;20368;-94
2022/03/16 07:59:42;;;;;;;23.38;16.27;;;;;;;6.26;82.88;102108.47;5021078;28;20057;-94
2022/03/16 08:02:07;;;;;;;26.42;16.80;;;;;;;6.49;82.16;102120.50;5032069;28;20466;-94
2022/03/16 08:04:32;;;;;;;25.15;17.95;;;;;;;6.76;81.35;102122.78;5030263;28;20422;-93
2022/03/16 08:06:57;;;;;;;24.45;16.25;;;;;;;6.96;79.97;102124.25;5019453;28;20038;-93
2022/03/16 08:09:23;;;;;;;21.63;16.45;;;;;;;7.31;78.61;102119.25;5035735;28;20110;-94
2022/03/16 08:11:48;;;;;;;22.75;15.75;;;;;;;7.45;77.45;102112.84;5033976;28;20033;-95
2022/03/16 08:14:13;;;;;;;22.80;16.52;;;;;;;7.51;77.16;102110.97;5025835;28;20537;-93
2022/03/16 08:16:39;;;;;;;23.55;17.10;;;;;;;7.68;76.72;102116.84;5023542;28;20022;-93
2022/03/16 08:19:04;;;;;;;23.25;14.65;;;;;;;7.79;76.27;102095.44;5032490;28;20109;-96
2022/03/16 08:21:30;;;;;;;23.75;15.82;;;;;;;8.05;75.73;102106.41;5037471;28;20018;-95
2022/03/16 08:23:55;;;;;;;21.73;15.27;;;;;;;8.23;73.84;102111.34;5038935;28;20042;-95
2022/03/16 08:26:21;;;;;;;22.35;15.75;;;;;;;8.48;73.62;102114.38;5032869;28;20443;-95
2022/03/16 08:28:47;;;;;;;23.33;15.57;;;;;;;8.77;72.03;102107.53;5041795;28;20045;-95
2022/03/16 08:31:14;;;;;;;21.33;14.52;;;;;;;9.22;71.63;102112.63;5016352;28;20022;-94
2022/03/16 08:33:40;;;;;;;20.75;15.13;;;;;;;9.75;68.10;102107.72;5017899;28;20364;-94
2022/03/16 08:36:07;;;;;;;24.23;15.65;;;;;;;10.09;66.30;102104.13;5036300;28;20021;-95
2022/03/16 08:38:36;;;;;;;23.17;15.45;;;;;;;10.35;64.43;102109.56;5045234;28;20032;-95
2022/03/16 08:41:02;;;;;;;21.90;15.90;;;;;;;10.69;64.18;102109.41;5039627;28;20036;-95
2022/03/16 08:43:27;;;;;;;19.85;14.35;;;;;;;11.09;62.56;102112.63;5034300;28;20061;-96
2022/03/16 08:45:53;;;;;;;21.02;14.93;;;;;;;11.53;61.48;102115.56;5039273;28;20041;-95
2022/03/16 08:48:18;;;;;;;19.38;14.27;;;;;;;11.91;60.13;102099.13;5043926;28;20487;-95
2022/03/16 08:50:44;;;;;;;18.48;14.30;;;;;;;12.31;58.09;102108.28;5020566;28;20026;-96
2022/03/16 08:53:09;;;;;;;23.50;14.73;;;;;;;12.51;56.60;102118.22;5050694;28;20039;-95
2022/03/16 08:55:34;;;;;;;20.73;14.27;;;;;;;12.90;55.27;102125.59;5054266;28;20049;-95
2022/03/16 08:57:59;;;;;;;18.92;13.70;;;;;;;13.24;54.47;102121.56;5048096;28;20468;-95
2022/03/16 09:00:25;;;;;;;22.48;15.80;;;;;;;13.37;53.68;102118.31;5038353;28;20014;-96
2022/03/16 09:02:50;;;;;;;22.77;15.52;;;;;;;13.86;53.63;102126.03;5047548;28;20101;-95
2022/03/16 09:05:17;;;;;;;20.60;14.50;;;;;;;14.44;51.53;102126.94;5044335;28;20033;-96
2022/03/16 09:07:43;;;;;;;21.02;15.05;;;;;;;14.47;49.75;102130.41;5042848;28;20033;-95
2022/03/16 09:10:09;;;;;;;19.35;14.38;;;;;;;14.49;49.98;102125.88;5038406;28;20021;-96
2022/03/16 09:12:35;;;;;;;23.40;14.95;;;;;;;14.54;49.61;102114.00;5030452;28;20057;-95
2022/03/16 09:15:01;;;;;;;21.33;14.55;;;;;;;14.85;49.54;102124.13;5034078;28;20110;-96
2022/03/16 09:17:28;;;;;;;21.63;14.82;;;;;;;15.17;48.86;102113.63;5027806;28;20360;-94
2022/03/16 09:19:53;;;;;;;26.17;14.93;;;;;;;15.28;47.24;102115.78;5029014;28;20026;-95
2022/03/16 09:22:18;;;;;;;19.50;14.77;;;;;;;15.41;46.88;102109.69;5048266;28;20052;-93
2022/03/16 09:24:44;;;;;;;19.52;14.05;;;;;;;15.74;46.21;102108.94;5030256;28;20081;-95
2022/03/16 09:27:10;;;;;;;20.05;14.70;;;;;;;15.93;46.43;102106.16;5029593;28;20061;-95
2022/03/16 09:29:35;;;;;;;18.98;14.73;;;;;;;16.12;45.04;102103.34;5041656;28;20040;-96
2022/03/16 09:32:01;;;;;;;18.38;14.57;;;;;;;16.07;44.44;102108.97;5034230;28;20475;-96
2022/03/16 09:34:26;;;;;;;18.73;13.93;;;;;;;16.06;45.45;102114.44;5028229;28;20018;-94
2022/03/16 09:36:51;;;;;;;19.17;13.93;;;;;;;16.75;44.23;102107.97;5017548;28;20036;-96
2022/03/16 09:39:16;;;;;;;19.65;14.23;;;;;;;17.36;42.55;102107.09;5027854;28;20030;-95
2022/03/16 09:41:42;;;;;;;18.35;14.15;;;;;;;17.48;41.80;102101.00;5027155;28;20022;-95
2022/03/16 09:44:09;;;;;;;21.45;14.88;;;;;;;17.65;41.77;102111.59;5027621;28;20021;-88
2022/03/16 09:46:37;;;;;;;19.40;14.57;;;;;;;18.51;41.17;102105.41;5032722;28;20104;-92
2022/03/16 09:49:07;;;;;;;17.52;13.30;;;;;;;19.28;38.72;102099.41;5039897;28;20083;-95
2022/03/16 09:51:35;;;;;;;17.40;14.18;;;;;;;19.62;37.82;102092.59;5045352;28;20493;-96
2022/03/16 09:54:02;;;;;;;19.90;15.10;;;;;;;19.93;36.84;102086.88;5036122;28;20205;-96
2022/03/16 09:56:30;;;;;;;17.35;13.95;;;;;;;20.15;36.34;102093.38;5048244;28;20085;-96
2022/03/16 09:58:56;;;;;;;18.23;14.07;;;;;;;19.95;36.09;102084.94;5047620;28;20026;-96
2022/03/16 10:01:21;;;;;;;18.00;13.95;;;;;;;19.94;36.42;102084.09;5025461;28;20060;-95
2022/03/16 10:03:48;;;;;;;15.00;11.77;;;;;;;20.45;35.79;102091.28;5033943;28;20121;-96
2022/03/16 10:06:15;;;;;;;15.95;12.68;;;;;;;20.84;34.75;102085.63;5043723;28;20037;-95
2022/03/16 10:08:40;;;;;;;12.65;11.30;;;;;;;20.78;34.78;102085.25;5032261;28;20056;-95
2022/03/16 10:14:05;;;;;;;15.15;12.10;;;;;;;21.80;35.02;102074.69;5032712;28;20152;-94
2022/03/16 10:17:43;;;;;;;15.35;11.73;;;;;;;21.98;32.67;102064.22;5039552;28;20077;-96
2022/03/16 10:19:24;;;;;;;16.77;13.45;;;;;;;22.19;33.15;102086.06;5038622;28;20038;-95
2022/03/16 10:22:00;;;;;;;15.02;12.57;;;;;;;22.45;33.25;102080.38;5029140;28;20030;-96
2022/03/16 10:24:28;;;;;;;14.10;12.32;;;;;;;22.69;31.81;102075.66;5028969;28;20083;-96
2022/03/16 10:26:54;;;;;;;13.27;11.80;;;;;;;22.50;31.24;102081.75;5042817;28;20033;-96
2022/03/16 10:29:22;;;;;;;13.75;11.75;;;;;;;21.91;32.12;102083.84;5040521;28;20530;-96
2022/03/16 10:32:03;;;;;;;13.32;11.15;;;;;;;21.56;34.29;102079.31;5045415;28;20120;-95
2022/03/16 10:34:28;;;;;;;13.68;11.27;;;;;;;21.65;33.35;102081.31;5032734;28;20356;-95
2022/03/16 10:36:54;;;;;;;14.50;11.20;;;;;;;22.56;32.28;102064.09;5028500;28;20060;-96
2022/03/16 10:39:32;;;;;;;12.85;11.00;;;;;;;23.14;32.86;102083.69;5034941;28;20076;-94
2022/03/16 10:47:55;;;;;;;13.43;10.37;;;;;;;23.32;30.25;102068.53;5040026;28;20048;-96
2022/03/16 10:50:21;;;;;;;14.18;10.52;;;;;;;22.54;31.44;102079.66;5040997;28;20026;-95
2022/03/16 10:52:48;;;;;;;13.35;10.75;;;;;;;22.25;31.90;102066.59;5030395;28;20049;-96
2022/03/16 10:55:13;;;;;;;11.70;10.45;;;;;;;21.95;32.52;102066.34;5026898;28;20054;-96
2022/03/16 10:57:42;;;;;;;13.65;10.65;;;;;;;21.39;33.37;102069.78;5023966;28;20061;-96
2022/03/16 11:00:08;;;;;;;12.40;10.88;;;;;;;20.96;34.27;102067.63;5042596;28;20037;-96
2022/03/16 11:02:34;;;;;;;15.20;11.57;;;;;;;21.08;34.66;102071.25;5045218;28;20025;-96
2022/03/16 11:05:00;;;;;;;12.65;10.77;;;;;;;21.60;33.50;102065.41;5029126;28;20373;-96
2022/03/16 11:07:36;;;;;;;12.85;10.95;;;;;;;21.92;32.98;102069.28;5044093;28;20033;-96
2022/03/16 11:10:01;;;;;;;13.48;11.50;;;;;;;21.50;32.88;102068.97;5055527;28;20034;-96
2022/03/16 11:15:11;;;;;;;14.32;11.52;;;;;;;19.05;37.41;102073.97;5045032;28;20032;-95
2022/03/16 11:17:37;;;;;;;15.10;11.25;;;;;;;17.87;39.83;102062.69;5042898;28;20029;-96
2022/03/16 11:20:05;;;;;;;13.25;11.15;;;;;;;17.23;41.61;102071.13;5041287;28;20041;-95
2022/03/16 11:22:35;;;;;;;13.73;11.32;;;;;;;17.16;42.25;102070.59;5035239;28;20026;-95
2022/03/16 11:25:15;;;;;;;14.27;11.82;;;;;;;17.68;42.08;102071.03;5033089;28;20044;-95